sensor_id;sensor_type;location;lat;lon;timestamp;temperature;humidity
34698;DHT22;61391;50.922;6.928;2023-07-30T00:01:24;18.40;99.90
34698;DHT22;61391;50.922;6.928;2023-07-30T00:03:49;18.40;99.90
34698;DHT22;61391;50.922;6.928;2023-07-30T00:06:15;18.40;99.90
34698;DHT22;61391;50.922;6.928;2023-07-30T00:08:40;18.40;99.90
34698;DHT22;61391;50.922;6.928;2023-07-30T00:11:06;18.40;99.90
34698;DHT22;61391;50.922;6.928;2023-07-30T00:13:31;18.40;99.90
34698;DHT22;61391;50.922;6.928;2023-07-30T00:15:57;18.30;99.90
34698;DHT22;61391;50.922;6.928;2023-07-30T00:18:23;18.40;99.90
34698;DHT22;61391;50.922;6.928;2023-07-30T00:20:48;18.30;99.90
34698;DHT22;61391;50.922;6.928;2023-07-30T00:23:14;18.30;99.90
34698;DHT22;61391;50.922;6.928;2023-07-30T00:25:39;18.30;99.90
34698;DHT22;61391;50.922;6.928;2023-07-30T00:28:05;18.20;99.90
34698;DHT22;61391;50.922;6.928;2023-07-30T00:30:30;18.30;99.90
34698;DHT22;61391;50.922;6.928;2023-07-30T00:32:56;18.20;99.90
34698;DHT22;61391;50.922;6.928;2023-07-30T00:35:22;18.20;99.90
34698;DHT22;61391;50.922;6.928;2023-07-30T00:37:47;18.30;99.90
34698;DHT22;61391;50.922;6.928;2023-07-30T00:40:13;18.20;99.90
34698;DHT22;61391;50.922;6.928;2023-07-30T00:42:38;18.20;99.90
34698;DHT22;61391;50.922;6.928;2023-07-30T00:45:04;18.30;99.90
34698;DHT22;61391;50.922;6.928;2023-07-30T00:47:30;18.30;99.90
34698;DHT22;61391;50.922;6.928;2023-07-30T00:49:56;18.20;99.90
34698;DHT22;61391;50.922;6.928;2023-07-30T00:52:23;18.20;99.90
34698;DHT22;61391;50.922;6.928;2023-07-30T00:54:49;18.20;99.90
34698;DHT22;61391;50.922;6.928;2023-07-30T00:57:18;18.30;99.90
34698;DHT22;61391;50.922;6.928;2023-07-30T00:59:45;18.10;99.90
34698;DHT22;61391;50.922;6.928;2023-07-30T01:02:11;18.10;99.90
34698;DHT22;61391;50.922;6.928;2023-07-30T01:04:37;18.20;99.90
34698;DHT22;61391;50.922;6.928;2023-07-30T01:07:05;18.30;99.90
34698;DHT22;61391;50.922;6.928;2023-07-30T01:09:32;18.40;99.90
34698;DHT22;61391;50.922;6.928;2023-07-30T01:11:58;18.50;99.90
34698;DHT22;61391;50.922;6.928;2023-07-30T01:14:24;18.40;99.90
34698;DHT22;61391;50.922;6.928;2023-07-30T01:16:51;18.20;99.90
34698;DHT22;61391;50.922;6.928;2023-07-30T01:19:17;18.20;99.90
34698;DHT22;61391;50.922;6.928;2023-07-30T01:21:43;18.20;99.90
34698;DHT22;61391;50.922;6.928;2023-07-30T01:24:09;18.30;99.90
34698;DHT22;61391;50.922;6.928;2023-07-30T01:26:48;18.30;99.90
34698;DHT22;61391;50.922;6.928;2023-07-30T01:29:22;18.40;99.90
34698;DHT22;61391;50.922;6.928;2023-07-30T01:31:56;18.40;99.90
34698;DHT22;61391;50.922;6.928;2023-07-30T01:34:27;18.40;99.90
34698;DHT22;61391;50.922;6.928;2023-07-30T01:36:54;18.50;99.90
34698;DHT22;61391;50.922;6.928;2023-07-30T01:39:20;18.50;99.90
34698;DHT22;61391;50.922;6.928;2023-07-30T01:41:46;18.50;99.90
34698;DHT22;61391;50.922;6.928;2023-07-30T01:44:11;18.60;99.90
34698;DHT22;61391;50.922;6.928;2023-07-30T01:46:37;18.60;99.90
34698;DHT22;61391;50.922;6.928;2023-07-30T01:49:03;18.60;99.90
34698;DHT22;61391;50.922;6.928;2023-07-30T01:51:31;18.60;99.90
34698;DHT22;61391;50.922;6.928;2023-07-30T01:53:56;18.50;99.90
34698;DHT22;61391;50.922;6.928;2023-07-30T01:59:31;18.60;99.90
34698;DHT22;61391;50.922;6.928;2023-07-30T02:01:57;18.60;99.90
34698;DHT22;61391;50.922;6.928;2023-07-30T02:04:22;18.60;99.90
34698;DHT22;61391;50.922;6.928;2023-07-30T02:06:48;18.70;99.90
34698;DHT22;61391;50.922;6.928;2023-07-30T02:09:14;18.70;99.90
34698;DHT22;61391;50.922;6.928;2023-07-30T02:11:39;18.80;99.90
34698;DHT22;61391;50.922;6.928;2023-07-30T02:14:06;18.70;99.90
34698;DHT22;61391;50.922;6.928;2023-07-30T02:16:33;18.60;99.90
34698;DHT22;61391;50.922;6.928;2023-07-30T02:18:58;18.70;99.90
34698;DHT22;61391;50.922;6.928;2023-07-30T02:21:24;18.80;99.90
34698;DHT22;61391;50.922;6.928;2023-07-30T02:23:49;18.80;99.90
34698;DHT22;61391;50.922;6.928;2023-07-30T02:26:15;18.80;99.90
34698;DHT22;61391;50.922;6.928;2023-07-30T02:28:41;18.90;99.90
34698;DHT22;61391;50.922;6.928;2023-07-30T02:31:06;18.90;99.90
34698;DHT22;61391;50.922;6.928;2023-07-30T02:33:32;18.90;99.90
34698;DHT22;61391;50.922;6.928;2023-07-30T02:39:19;19.00;99.90
34698;DHT22;61391;50.922;6.928;2023-07-30T02:41:45;18.90;99.90
34698;DHT22;61391;50.922;6.928;2023-07-30T02:44:11;18.90;99.90
34698;DHT22;61391;50.922;6.928;2023-07-30T02:46:36;18.90;99.90
34698;DHT22;61391;50.922;6.928;2023-07-30T02:49:02;19.00;99.90
34698;DHT22;61391;50.922;6.928;2023-07-30T02:51:28;18.90;99.90
34698;DHT22;61391;50.922;6.928;2023-07-30T02:53:57;18.90;99.90
34698;DHT22;61391;50.922;6.928;2023-07-30T02:56:24;18.80;99.90
34698;DHT22;61391;50.922;6.928;2023-07-30T02:58:50;18.80;99.90
34698;DHT22;61391;50.922;6.928;2023-07-30T03:01:15;18.80;99.90
34698;DHT22;61391;50.922;6.928;2023-07-30T03:03:41;18.80;99.90
34698;DHT22;61391;50.922;6.928;2023-07-30T03:06:07;18.80;99.90
34698;DHT22;61391;50.922;6.928;2023-07-30T03:08:32;18.80;99.90
34698;DHT22;61391;50.922;6.928;2023-07-30T03:10:59;18.60;99.90
34698;DHT22;61391;50.922;6.928;2023-07-30T03:13:25;18.70;99.90
34698;DHT22;61391;50.922;6.928;2023-07-30T03:15:51;18.70;99.90
34698;DHT22;61391;50.922;6.928;2023-07-30T03:18:16;18.70;99.90
34698;DHT22;61391;50.922;6.928;2023-07-30T03:20:42;18.80;99.90
34698;DHT22;61391;50.922;6.928;2023-07-30T03:23:08;18.80;99.90
34698;DHT22;61391;50.922;6.928;2023-07-30T03:25:33;18.70;99.90
34698;DHT22;61391;50.922;6.928;2023-07-30T03:27:59;18.70;99.90
34698;DHT22;61391;50.922;6.928;2023-07-30T03:30:24;18.60;99.90
34698;DHT22;61391;50.922;6.928;2023-07-30T03:32:51;18.70;99.90
34698;DHT22;61391;50.922;6.928;2023-07-30T03:35:17;18.70;99.90
34698;DHT22;61391;50.922;6.928;2023-07-30T03:37:43;18.80;99.90
34698;DHT22;61391;50.922;6.928;2023-07-30T03:43:30;18.60;99.90
34698;DHT22;61391;50.922;6.928;2023-07-30T03:49:17;18.70;99.90
34698;DHT22;61391;50.922;6.928;2023-07-30T03:51:43;18.70;99.90
34698;DHT22;61391;50.922;6.928;2023-07-30T03:54:09;18.60;99.90
34698;DHT22;61391;50.922;6.928;2023-07-30T03:59:56;18.60;99.90
34698;DHT22;61391;50.922;6.928;2023-07-30T04:02:22;18.60;99.90
34698;DHT22;61391;50.922;6.928;2023-07-30T04:04:47;18.60;99.90
34698;DHT22;61391;50.922;6.928;2023-07-30T04:07:15;18.50;99.90
34698;DHT22;61391;50.922;6.928;2023-07-30T04:09:42;18.50;99.90
34698;DHT22;61391;50.922;6.928;2023-07-30T04:12:08;18.40;99.90
34698;DHT22;61391;50.922;6.928;2023-07-30T04:14:33;18.40;99.90
34698;DHT22;61391;50.922;6.928;2023-07-30T04:20:21;18.40;99.90
34698;DHT22;61391;50.922;6.928;2023-07-30T04:22:46;18.50;99.90
34698;DHT22;61391;50.922;6.928;2023-07-30T04:25:12;18.50;99.90
34698;DHT22;61391;50.922;6.928;2023-07-30T04:27:37;18.60;99.90
34698;DHT22;61391;50.922;6.928;2023-07-30T04:30:05;18.40;99.90
34698;DHT22;61391;50.922;6.928;2023-07-30T04:32:31;18.40;99.90
34698;DHT22;61391;50.922;6.928;2023-07-30T04:34:56;18.50;99.90
34698;DHT22;61391;50.922;6.928;2023-07-30T04:37:23;18.50;99.90
34698;DHT22;61391;50.922;6.928;2023-07-30T04:39:50;18.50;99.90
34698;DHT22;61391;50.922;6.928;2023-07-30T04:42:16;18.40;99.90
34698;DHT22;61391;50.922;6.928;2023-07-30T04:44:42;18.40;99.90
34698;DHT22;61391;50.922;6.928;2023-07-30T04:47:07;18.40;99.90
34698;DHT22;61391;50.922;6.928;2023-07-30T04:49:33;18.30;99.90
34698;DHT22;61391;50.922;6.928;2023-07-30T04:55:21;18.30;99.90
34698;DHT22;61391;50.922;6.928;2023-07-30T04:57:46;18.40;99.90
34698;DHT22;61391;50.922;6.928;2023-07-30T05:00:12;18.40;99.90
34698;DHT22;61391;50.922;6.928;2023-07-30T05:02:38;18.50;99.90
34698;DHT22;61391;50.922;6.928;2023-07-30T05:05:05;18.60;99.90
34698;DHT22;61391;50.922;6.928;2023-07-30T05:07:31;18.60;99.90
34698;DHT22;61391;50.922;6.928;2023-07-30T05:09:56;18.70;99.90
34698;DHT22;61391;50.922;6.928;2023-07-30T05:12:22;18.70;99.90
34698;DHT22;61391;50.922;6.928;2023-07-30T05:14:48;18.70;99.90
34698;DHT22;61391;50.922;6.928;2023-07-30T05:17:15;18.70;99.90
34698;DHT22;61391;50.922;6.928;2023-07-30T05:19:40;18.70;99.90
34698;DHT22;61391;50.922;6.928;2023-07-30T05:22:06;18.70;99.90
34698;DHT22;61391;50.922;6.928;2023-07-30T05:24:33;18.70;99.90
34698;DHT22;61391;50.922;6.928;2023-07-30T05:27:00;18.60;99.90
34698;DHT22;61391;50.922;6.928;2023-07-30T05:29:26;18.70;99.90
34698;DHT22;61391;50.922;6.928;2023-07-30T05:31:51;18.70;99.90
34698;DHT22;61391;50.922;6.928;2023-07-30T05:34:17;18.80;99.90
34698;DHT22;61391;50.922;6.928;2023-07-30T05:36:42;18.90;99.90
34698;DHT22;61391;50.922;6.928;2023-07-30T05:39:08;19.00;99.90
34698;DHT22;61391;50.922;6.928;2023-07-30T05:41:33;18.90;99.90
34698;DHT22;61391;50.922;6.928;2023-07-30T05:43:59;18.80;99.90
34698;DHT22;61391;50.922;6.928;2023-07-30T05:46:25;18.70;99.90
34698;DHT22;61391;50.922;6.928;2023-07-30T05:48:50;18.80;99.90
34698;DHT22;61391;50.922;6.928;2023-07-30T05:51:16;18.80;99.90
34698;DHT22;61391;50.922;6.928;2023-07-30T05:53:42;18.80;99.90
34698;DHT22;61391;50.922;6.928;2023-07-30T05:56:07;18.80;99.90
34698;DHT22;61391;50.922;6.928;2023-07-30T05:58:33;18.70;99.90
34698;DHT22;61391;50.922;6.928;2023-07-30T06:00:58;18.80;99.90
34698;DHT22;61391;50.922;6.928;2023-07-30T06:03:24;18.80;99.90
34698;DHT22;61391;50.922;6.928;2023-07-30T06:05:50;18.90;99.90
34698;DHT22;61391;50.922;6.928;2023-07-30T06:08:16;19.00;99.90
34698;DHT22;61391;50.922;6.928;2023-07-30T06:10:42;19.00;99.90
34698;DHT22;61391;50.922;6.928;2023-07-30T06:13:09;19.10;99.90
34698;DHT22;61391;50.922;6.928;2023-07-30T06:15:35;19.10;99.90
34698;DHT22;61391;50.922;6.928;2023-07-30T06:21:24;18.90;99.90
34698;DHT22;61391;50.922;6.928;2023-07-30T06:23:53;18.80;99.90
34698;DHT22;61391;50.922;6.928;2023-07-30T06:26:18;18.70;99.90
34698;DHT22;61391;50.922;6.928;2023-07-30T06:28:44;18.80;99.90
34698;DHT22;61391;50.922;6.928;2023-07-30T06:31:10;18.80;99.90
34698;DHT22;61391;50.922;6.928;2023-07-30T06:33:37;18.80;99.90
34698;DHT22;61391;50.922;6.928;2023-07-30T06:36:04;18.70;99.90
34698;DHT22;61391;50.922;6.928;2023-07-30T06:38:30;18.70;99.90
34698;DHT22;61391;50.922;6.928;2023-07-30T06:40:57;18.80;99.90
34698;DHT22;61391;50.922;6.928;2023-07-30T06:43:23;18.80;99.90
34698;DHT22;61391;50.922;6.928;2023-07-30T06:45:49;18.70;99.90
34698;DHT22;61391;50.922;6.928;2023-07-30T06:48:15;18.60;99.90
34698;DHT22;61391;50.922;6.928;2023-07-30T06:50:41;18.40;99.90
34698;DHT22;61391;50.922;6.928;2023-07-30T06:53:07;18.40;99.90
34698;DHT22;61391;50.922;6.928;2023-07-30T06:55:33;18.40;99.90
34698;DHT22;61391;50.922;6.928;2023-07-30T06:57:59;18.50;99.90
34698;DHT22;61391;50.922;6.928;2023-07-30T07:00:24;18.50;99.90
34698;DHT22;61391;50.922;6.928;2023-07-30T07:02:50;18.70;99.90
34698;DHT22;61391;50.922;6.928;2023-07-30T07:05:16;18.60;99.90
34698;DHT22;61391;50.922;6.928;2023-07-30T07:07:41;18.60;99.90
34698;DHT22;61391;50.922;6.928;2023-07-30T07:10:07;18.60;99.90
34698;DHT22;61391;50.922;6.928;2023-07-30T07:12:33;18.70;99.90
34698;DHT22;61391;50.922;6.928;2023-07-30T07:18:20;19.00;99.90
34698;DHT22;61391;50.922;6.928;2023-07-30T07:20:46;19.00;99.90
34698;DHT22;61391;50.922;6.928;2023-07-30T07:23:12;19.10;99.90
34698;DHT22;61391;50.922;6.928;2023-07-30T07:25:37;19.30;99.90
34698;DHT22;61391;50.922;6.928;2023-07-30T07:31:25;19.70;99.90
34698;DHT22;61391;50.922;6.928;2023-07-30T07:33:50;19.80;99.90
34698;DHT22;61391;50.922;6.928;2023-07-30T07:36:17;19.80;99.90
34698;DHT22;61391;50.922;6.928;2023-07-30T07:42:01;19.70;99.90
34698;DHT22;61391;50.922;6.928;2023-07-30T07:44:27;19.70;99.90
34698;DHT22;61391;50.922;6.928;2023-07-30T07:46:53;19.70;99.90
34698;DHT22;61391;50.922;6.928;2023-07-30T07:49:18;19.70;99.90
34698;DHT22;61391;50.922;6.928;2023-07-30T07:51:44;19.90;99.90
34698;DHT22;61391;50.922;6.928;2023-07-30T07:54:09;19.90;99.90
34698;DHT22;61391;50.922;6.928;2023-07-30T07:56:35;19.80;99.90
34698;DHT22;61391;50.922;6.928;2023-07-30T08:02:22;19.80;99.90
34698;DHT22;61391;50.922;6.928;2023-07-30T08:04:49;19.50;99.90
34698;DHT22;61391;50.922;6.928;2023-07-30T08:07:15;19.50;99.90
34698;DHT22;61391;50.922;6.928;2023-07-30T08:09:40;19.60;99.90
34698;DHT22;61391;50.922;6.928;2023-07-30T08:12:06;19.80;99.90
34698;DHT22;61391;50.922;6.928;2023-07-30T08:17:54;20.30;99.90
34698;DHT22;61391;50.922;6.928;2023-07-30T08:20:21;20.40;99.90
34698;DHT22;61391;50.922;6.928;2023-07-30T08:22:46;20.20;99.90
34698;DHT22;61391;50.922;6.928;2023-07-30T08:25:12;20.10;99.90
34698;DHT22;61391;50.922;6.928;2023-07-30T08:27:38;20.10;99.90
34698;DHT22;61391;50.922;6.928;2023-07-30T08:30:04;20.30;99.90
34698;DHT22;61391;50.922;6.928;2023-07-30T08:32:29;20.30;99.90
34698;DHT22;61391;50.922;6.928;2023-07-30T08:34:55;20.40;99.90
34698;DHT22;61391;50.922;6.928;2023-07-30T08:37:21;20.40;99.90
34698;DHT22;61391;50.922;6.928;2023-07-30T08:39:47;20.10;99.90
34698;DHT22;61391;50.922;6.928;2023-07-30T08:42:12;20.00;99.90
34698;DHT22;61391;50.922;6.928;2023-07-30T08:44:39;19.80;99.90
34698;DHT22;61391;50.922;6.928;2023-07-30T08:47:05;19.80;99.90
34698;DHT22;61391;50.922;6.928;2023-07-30T08:49:31;19.90;99.90
34698;DHT22;61391;50.922;6.928;2023-07-30T08:51:58;20.60;99.90
34698;DHT22;61391;50.922;6.928;2023-07-30T08:54:26;21.60;99.90
34698;DHT22;61391;50.922;6.928;2023-07-30T08:56:53;23.50;99.90
34698;DHT22;61391;50.922;6.928;2023-07-30T08:59:20;24.50;99.90
34698;DHT22;61391;50.922;6.928;2023-07-30T09:01:48;25.10;99.90
34698;DHT22;61391;50.922;6.928;2023-07-30T09:04:17;25.40;99.90
34698;DHT22;61391;50.922;6.928;2023-07-30T09:06:43;24.90;99.90
34698;DHT22;61391;50.922;6.928;2023-07-30T09:09:10;25.20;99.90
34698;DHT22;61391;50.922;6.928;2023-07-30T09:11:37;24.60;99.90
34698;DHT22;61391;50.922;6.928;2023-07-30T09:14:02;24.30;99.90
34698;DHT22;61391;50.922;6.928;2023-07-30T09:16:28;24.50;99.90
34698;DHT22;61391;50.922;6.928;2023-07-30T09:18:54;24.70;99.90
34698;DHT22;61391;50.922;6.928;2023-07-30T09:21:20;24.80;99.90
34698;DHT22;61391;50.922;6.928;2023-07-30T09:23:54;25.00;99.90
34698;DHT22;61391;50.922;6.928;2023-07-30T09:26:19;24.70;99.90
34698;DHT22;61391;50.922;6.928;2023-07-30T09:28:45;24.20;99.90
34698;DHT22;61391;50.922;6.928;2023-07-30T09:31:11;23.90;99.90
34698;DHT22;61391;50.922;6.928;2023-07-30T09:33:41;23.20;99.90
34698;DHT22;61391;50.922;6.928;2023-07-30T09:36:08;22.60;99.90
34698;DHT22;61391;50.922;6.928;2023-07-30T09:38:42;22.60;99.90
34698;DHT22;61391;50.922;6.928;2023-07-30T09:41:08;23.20;99.90
34698;DHT22;61391;50.922;6.928;2023-07-30T09:43:37;24.70;99.90
34698;DHT22;61391;50.922;6.928;2023-07-30T09:46:04;26.40;99.90
34698;DHT22;61391;50.922;6.928;2023-07-30T09:48:31;27.30;99.90
34698;DHT22;61391;50.922;6.928;2023-07-30T09:51:04;27.10;99.90
34698;DHT22;61391;50.922;6.928;2023-07-30T09:53:32;27.30;99.90
34698;DHT22;61391;50.922;6.928;2023-07-30T09:56:05;26.30;99.90
34698;DHT22;61391;50.922;6.928;2023-07-30T09:58:34;25.90;99.90
34698;DHT22;61391;50.922;6.928;2023-07-30T10:01:04;26.40;99.90
34698;DHT22;61391;50.922;6.928;2023-07-30T10:03:32;27.10;99.90
34698;DHT22;61391;50.922;6.928;2023-07-30T10:09:23;27.00;99.90
34698;DHT22;61391;50.922;6.928;2023-07-30T10:15:12;26.30;99.90
34698;DHT22;61391;50.922;6.928;2023-07-30T10:17:37;25.30;99.90
34698;DHT22;61391;50.922;6.928;2023-07-30T10:22:52;25.30;99.90
34698;DHT22;61391;50.922;6.928;2023-07-30T10:25:30;24.50;99.90
34698;DHT22;61391;50.922;6.928;2023-07-30T10:27:58;24.10;99.90
34698;DHT22;61391;50.922;6.928;2023-07-30T10:30:30;23.90;99.90
34698;DHT22;61391;50.922;6.928;2023-07-30T10:35:36;26.00;99.90
34698;DHT22;61391;50.922;6.928;2023-07-30T10:41:23;28.20;99.90
34698;DHT22;61391;50.922;6.928;2023-07-30T10:44:19;28.80;99.20
34698;DHT22;61391;50.922;6.928;2023-07-30T10:46:46;28.80;98.20
34698;DHT22;61391;50.922;6.928;2023-07-30T10:49:12;28.70;97.00
34698;DHT22;61391;50.922;6.928;2023-07-30T10:51:38;29.10;96.70
34698;DHT22;61391;50.922;6.928;2023-07-30T10:54:06;28.70;95.10
34698;DHT22;61391;50.922;6.928;2023-07-30T10:56:35;27.40;98.30
34698;DHT22;61391;50.922;6.928;2023-07-30T10:59:03;26.80;99.90
34698;DHT22;61391;50.922;6.928;2023-07-30T11:01:31;26.70;99.90
34698;DHT22;61391;50.922;6.928;2023-07-30T11:07:19;26.10;99.90
34698;DHT22;61391;50.922;6.928;2023-07-30T11:09:45;28.50;99.90
34698;DHT22;61391;50.922;6.928;2023-07-30T11:12:12;29.30;97.00
34698;DHT22;61391;50.922;6.928;2023-07-30T11:14:40;29.30;94.50
34698;DHT22;61391;50.922;6.928;2023-07-30T11:17:05;28.40;95.80
34698;DHT22;61391;50.922;6.928;2023-07-30T11:19:31;27.80;96.80
34698;DHT22;61391;50.922;6.928;2023-07-30T11:21:59;26.80;97.70
34698;DHT22;61391;50.922;6.928;2023-07-30T11:24:37;26.80;98.60
34698;DHT22;61391;50.922;6.928;2023-07-30T11:27:04;26.50;99.90
34698;DHT22;61391;50.922;6.928;2023-07-30T11:29:31;26.10;99.90
34698;DHT22;61391;50.922;6.928;2023-07-30T11:31:58;26.20;99.90
34698;DHT22;61391;50.922;6.928;2023-07-30T11:34:25;26.40;99.90
34698;DHT22;61391;50.922;6.928;2023-07-30T11:36:51;25.90;99.90
34698;DHT22;61391;50.922;6.928;2023-07-30T11:39:17;25.50;99.80
34698;DHT22;61391;50.922;6.928;2023-07-30T11:41:43;25.10;99.90
34698;DHT22;61391;50.922;6.928;2023-07-30T11:44:09;25.10;99.90
34698;DHT22;61391;50.922;6.928;2023-07-30T11:46:54;25.00;99.90
34698;DHT22;61391;50.922;6.928;2023-07-30T11:49:20;24.80;99.90
34698;DHT22;61391;50.922;6.928;2023-07-30T11:51:47;24.50;99.90
34698;DHT22;61391;50.922;6.928;2023-07-30T11:54:22;24.50;99.90
34698;DHT22;61391;50.922;6.928;2023-07-30T11:56:55;24.30;99.90
34698;DHT22;61391;50.922;6.928;2023-07-30T12:02:24;23.80;99.90
34698;DHT22;61391;50.922;6.928;2023-07-30T12:04:50;23.70;99.90
34698;DHT22;61391;50.922;6.928;2023-07-30T12:07:23;23.50;99.90
34698;DHT22;61391;50.922;6.928;2023-07-30T12:09:49;23.50;99.90
34698;DHT22;61391;50.922;6.928;2023-07-30T12:12:15;23.60;99.90
34698;DHT22;61391;50.922;6.928;2023-07-30T12:14:53;23.50;99.90
34698;DHT22;61391;50.922;6.928;2023-07-30T12:17:19;23.50;99.90
34698;DHT22;61391;50.922;6.928;2023-07-30T12:19:46;23.30;99.90
34698;DHT22;61391;50.922;6.928;2023-07-30T12:22:12;23.40;99.90
34698;DHT22;61391;50.922;6.928;2023-07-30T12:24:37;23.80;99.90
34698;DHT22;61391;50.922;6.928;2023-07-30T12:27:03;23.70;99.90
34698;DHT22;61391;50.922;6.928;2023-07-30T12:32:51;23.60;99.90
34698;DHT22;61391;50.922;6.928;2023-07-30T12:35:17;23.90;99.90
34698;DHT22;61391;50.922;6.928;2023-07-30T12:37:43;24.00;99.90
34698;DHT22;61391;50.922;6.928;2023-07-30T12:40:08;24.30;99.90
34698;DHT22;61391;50.922;6.928;2023-07-30T12:42:56;24.40;99.90
34698;DHT22;61391;50.922;6.928;2023-07-30T12:45:23;24.70;99.90
34698;DHT22;61391;50.922;6.928;2023-07-30T12:47:48;24.50;99.90
34698;DHT22;61391;50.922;6.928;2023-07-30T12:50:14;24.50;99.90
34698;DHT22;61391;50.922;6.928;2023-07-30T12:52:40;24.60;99.90
34698;DHT22;61391;50.922;6.928;2023-07-30T12:55:05;24.80;99.90
34698;DHT22;61391;50.922;6.928;2023-07-30T13:00:54;24.90;99.90
34698;DHT22;61391;50.922;6.928;2023-07-30T13:03:20;24.70;99.90
34698;DHT22;61391;50.922;6.928;2023-07-30T13:05:46;24.60;99.90
34698;DHT22;61391;50.922;6.928;2023-07-30T13:08:11;24.50;99.90
34698;DHT22;61391;50.922;6.928;2023-07-30T13:10:37;24.50;99.90
34698;DHT22;61391;50.922;6.928;2023-07-30T13:13:02;24.60;99.90
34698;DHT22;61391;50.922;6.928;2023-07-30T13:15:28;24.50;99.90
34698;DHT22;61391;50.922;6.928;2023-07-30T13:17:54;24.30;99.90
34698;DHT22;61391;50.922;6.928;2023-07-30T13:20:19;24.20;99.90
34698;DHT22;61391;50.922;6.928;2023-07-30T13:22:45;24.30;99.90
34698;DHT22;61391;50.922;6.928;2023-07-30T13:25:11;24.40;99.90
34698;DHT22;61391;50.922;6.928;2023-07-30T13:27:36;24.50;99.90
34698;DHT22;61391;50.922;6.928;2023-07-30T13:30:02;24.60;99.90
34698;DHT22;61391;50.922;6.928;2023-07-30T13:32:29;24.80;99.90
34698;DHT22;61391;50.922;6.928;2023-07-30T13:34:55;24.90;99.90
34698;DHT22;61391;50.922;6.928;2023-07-30T13:37:21;24.80;99.90
34698;DHT22;61391;50.922;6.928;2023-07-30T13:39:47;24.50;99.90
34698;DHT22;61391;50.922;6.928;2023-07-30T13:42:14;24.40;99.90
34698;DHT22;61391;50.922;6.928;2023-07-30T13:44:39;24.30;99.90
34698;DHT22;61391;50.922;6.928;2023-07-30T13:47:05;24.10;99.90
34698;DHT22;61391;50.922;6.928;2023-07-30T13:49:31;23.90;99.90
34698;DHT22;61391;50.922;6.928;2023-07-30T13:51:56;23.70;99.90
34698;DHT22;61391;50.922;6.928;2023-07-30T13:54:22;23.70;99.90
34698;DHT22;61391;50.922;6.928;2023-07-30T13:56:48;23.80;99.90
34698;DHT22;61391;50.922;6.928;2023-07-30T13:59:16;23.80;99.90
34698;DHT22;61391;50.922;6.928;2023-07-30T14:01:43;23.70;99.90
34698;DHT22;61391;50.922;6.928;2023-07-30T14:07:31;23.30;99.90
34698;DHT22;61391;50.922;6.928;2023-07-30T14:09:56;23.30;99.90
34698;DHT22;61391;50.922;6.928;2023-07-30T14:12:22;23.30;99.90
34698;DHT22;61391;50.922;6.928;2023-07-30T14:14:48;23.50;99.90
34698;DHT22;61391;50.922;6.928;2023-07-30T14:17:15;23.60;99.90
34698;DHT22;61391;50.922;6.928;2023-07-30T14:19:44;23.90;99.90
34698;DHT22;61391;50.922;6.928;2023-07-30T14:22:10;24.00;99.90
34698;DHT22;61391;50.922;6.928;2023-07-30T14:27:58;24.10;99.90
34698;DHT22;61391;50.922;6.928;2023-07-30T14:30:23;24.00;99.90
34698;DHT22;61391;50.922;6.928;2023-07-30T14:32:49;24.20;99.90
34698;DHT22;61391;50.922;6.928;2023-07-30T14:35:15;24.30;99.90
34698;DHT22;61391;50.922;6.928;2023-07-30T14:37:41;24.30;99.90
34698;DHT22;61391;50.922;6.928;2023-07-30T14:40:06;24.30;99.90
34698;DHT22;61391;50.922;6.928;2023-07-30T14:42:32;24.20;99.90
34698;DHT22;61391;50.922;6.928;2023-07-30T14:44:58;24.30;99.90
34698;DHT22;61391;50.922;6.928;2023-07-30T14:47:24;24.40;99.90
34698;DHT22;61391;50.922;6.928;2023-07-30T14:49:49;24.40;99.90
34698;DHT22;61391;50.922;6.928;2023-07-30T14:52:17;24.40;99.90
34698;DHT22;61391;50.922;6.928;2023-07-30T14:54:44;24.40;99.90
34698;DHT22;61391;50.922;6.928;2023-07-30T14:57:10;24.40;99.90
34698;DHT22;61391;50.922;6.928;2023-07-30T14:59:36;24.70;99.90
34698;DHT22;61391;50.922;6.928;2023-07-30T15:02:01;24.90;99.90
34698;DHT22;61391;50.922;6.928;2023-07-30T15:04:27;25.00;99.90
34698;DHT22;61391;50.922;6.928;2023-07-30T15:06:52;25.00;99.90
34698;DHT22;61391;50.922;6.928;2023-07-30T15:09:18;24.90;99.90
34698;DHT22;61391;50.922;6.928;2023-07-30T15:11:43;24.70;99.90
34698;DHT22;61391;50.922;6.928;2023-07-30T15:14:09;24.50;99.90
34698;DHT22;61391;50.922;6.928;2023-07-30T15:16:35;24.40;99.90
34698;DHT22;61391;50.922;6.928;2023-07-30T15:19:00;24.20;99.90
34698;DHT22;61391;50.922;6.928;2023-07-30T15:21:26;24.10;99.90
34698;DHT22;61391;50.922;6.928;2023-07-30T15:23:53;24.10;99.90
34698;DHT22;61391;50.922;6.928;2023-07-30T15:26:19;24.10;99.90
34698;DHT22;61391;50.922;6.928;2023-07-30T15:28:46;23.90;99.90
34698;DHT22;61391;50.922;6.928;2023-07-30T15:34:35;23.40;99.90
34698;DHT22;61391;50.922;6.928;2023-07-30T15:37:01;23.20;99.90
34698;DHT22;61391;50.922;6.928;2023-07-30T15:39:28;23.20;99.90
34698;DHT22;61391;50.922;6.928;2023-07-30T15:45:17;23.40;99.90
34698;DHT22;61391;50.922;6.928;2023-07-30T15:47:46;23.30;99.90
34698;DHT22;61391;50.922;6.928;2023-07-30T15:50:13;23.20;99.90
34698;DHT22;61391;50.922;6.928;2023-07-30T15:52:38;23.20;99.90
34698;DHT22;61391;50.922;6.928;2023-07-30T15:55:05;23.10;99.90
34698;DHT22;61391;50.922;6.928;2023-07-30T15:57:31;23.00;99.90
34698;DHT22;61391;50.922;6.928;2023-07-30T15:59:57;23.10;99.90
34698;DHT22;61391;50.922;6.928;2023-07-30T16:02:22;23.20;99.90
34698;DHT22;61391;50.922;6.928;2023-07-30T16:04:48;23.40;99.90
34698;DHT22;61391;50.922;6.928;2023-07-30T16:07:14;23.40;99.90
34698;DHT22;61391;50.922;6.928;2023-07-30T16:09:40;23.20;99.90
34698;DHT22;61391;50.922;6.928;2023-07-30T16:12:06;23.20;99.90
34698;DHT22;61391;50.922;6.928;2023-07-30T16:14:32;23.20;99.90
34698;DHT22;61391;50.922;6.928;2023-07-30T16:17:00;23.20;99.90
34698;DHT22;61391;50.922;6.928;2023-07-30T16:19:26;23.30;99.90
34698;DHT22;61391;50.922;6.928;2023-07-30T16:25:13;23.20;99.90
34698;DHT22;61391;50.922;6.928;2023-07-30T16:27:39;23.30;99.90
34698;DHT22;61391;50.922;6.928;2023-07-30T16:30:05;23.20;99.90
34698;DHT22;61391;50.922;6.928;2023-07-30T16:32:32;23.30;99.90
34698;DHT22;61391;50.922;6.928;2023-07-30T16:34:58;23.30;99.90
34698;DHT22;61391;50.922;6.928;2023-07-30T16:37:23;23.40;99.90
34698;DHT22;61391;50.922;6.928;2023-07-30T16:39:49;23.50;99.90
34698;DHT22;61391;50.922;6.928;2023-07-30T16:42:16;23.60;99.90
34698;DHT22;61391;50.922;6.928;2023-07-30T16:44:42;23.50;99.90
34698;DHT22;61391;50.922;6.928;2023-07-30T16:47:07;23.30;99.90
34698;DHT22;61391;50.922;6.928;2023-07-30T16:52:55;23.30;99.90
34698;DHT22;61391;50.922;6.928;2023-07-30T16:55:21;23.20;99.90
34698;DHT22;61391;50.922;6.928;2023-07-30T17:01:09;23.50;99.90